Terminal Aerodrome Forecast
Issued by NWS Lake Charles, LA

Home | Current Version | Previous Version | Text Only | Print | Product List | Glossary On
Versions: 1 2 3 4 5 6 7 8 9 10 11 12 13 14 15 16 17 18
000
FTUS44 KLCH 251500 AAA
TAFLFT
TAF AMD
KLFT 251526Z 2515/2612 VRB03KT P6SM SCT015
      TEMPO 2515/2517 BKN015
     FM251700 24006KT P6SM VCSH SCT040
     FM260100 VRB03KT P6SM SKC=

USA.gov is the U.S. government's official web portal to all federal, state and local government web resources and services.